Terminal Aerodrome Forecast
Issued by NWS Indianapolis, IN

Home | Current Version | Previous Version | Text Only | Print | Product List | Glossary On
Versions: 1 2 3 4 5 6 7 8 9 10 11 12 13 14 15 16 17 18 19 20 21 22 23 24 25 26
000
FTUS43 KIND 031400 AAA
TAFIND
TAF AMD
KIND 031425Z 0314/0418 04009KT P6SM OVC030
     FM031900 04008KT P6SM BKN035 BKN060
     FM032200 04007KT P6SM SCT040 BKN060
     FM040300 03006KT P6SM SCT060 SCT250
     FM041400 33005KT P6SM SCT060 SCT250=

USA.gov is the U.S. government's official web portal to all federal, state and local government web resources and services.